sensor_id;sensor_type;location;lat;lon;timestamp;temperature;humidity
84276;DHT22;74432;51.212;3.254;2024-02-26T00:01:36;8.80;82.50
84276;DHT22;74432;51.212;3.254;2024-02-26T00:04:02;8.80;83.50
84276;DHT22;74432;51.212;3.254;2024-02-26T00:06:29;8.80;83.20
84276;DHT22;74432;51.212;3.254;2024-02-26T00:08:55;8.80;83.50
84276;DHT22;74432;51.212;3.254;2024-02-26T00:11:20;8.70;83.90
84276;DHT22;74432;51.212;3.254;2024-02-26T00:13:46;8.60;84.10
84276;DHT22;74432;51.212;3.254;2024-02-26T00:16:12;8.50;85.10
84276;DHT22;74432;51.212;3.254;2024-02-26T00:18:37;8.50;85.40
84276;DHT22;74432;51.212;3.254;2024-02-26T00:21:03;8.40;85.90
84276;DHT22;74432;51.212;3.254;2024-02-26T00:23:29;8.50;86.80
84276;DHT22;74432;51.212;3.254;2024-02-26T00:25:58;8.40;86.40
84276;DHT22;74432;51.212;3.254;2024-02-26T00:28:23;8.30;86.80
84276;DHT22;74432;51.212;3.254;2024-02-26T00:30:50;8.40;86.40
84276;DHT22;74432;51.212;3.254;2024-02-26T00:33:21;8.40;86.40
84276;DHT22;74432;51.212;3.254;2024-02-26T00:35:47;8.50;86.40
84276;DHT22;74432;51.212;3.254;2024-02-26T00:38:13;8.50;86.20
84276;DHT22;74432;51.212;3.254;2024-02-26T00:40:38;8.40;86.60
84276;DHT22;74432;51.212;3.254;2024-02-26T00:43:04;8.40;86.70
84276;DHT22;74432;51.212;3.254;2024-02-26T00:45:30;8.40;87.20
84276;DHT22;74432;51.212;3.254;2024-02-26T00:47:57;8.30;87.20
84276;DHT22;74432;51.212;3.254;2024-02-26T00:50:23;8.30;87.70
84276;DHT22;74432;51.212;3.254;2024-02-26T00:52:49;8.30;88.00
84276;DHT22;74432;51.212;3.254;2024-02-26T00:55:17;8.20;88.00
84276;DHT22;74432;51.212;3.254;2024-02-26T00:57:43;8.10;88.80
84276;DHT22;74432;51.212;3.254;2024-02-26T01:00:09;8.10;89.20
84276;DHT22;74432;51.212;3.254;2024-02-26T01:02:35;8.10;89.20
84276;DHT22;74432;51.212;3.254;2024-02-26T01:05:00;8.20;88.70
84276;DHT22;74432;51.212;3.254;2024-02-26T01:07:26;8.10;89.10
84276;DHT22;74432;51.212;3.254;2024-02-26T01:09:52;8.20;89.50
84276;DHT22;74432;51.212;3.254;2024-02-26T01:12:17;8.20;89.40
84276;DHT22;74432;51.212;3.254;2024-02-26T01:14:43;8.10;89.50
84276;DHT22;74432;51.212;3.254;2024-02-26T01:17:09;8.10;90.00
84276;DHT22;74432;51.212;3.254;2024-02-26T01:19:34;8.00;90.10
84276;DHT22;74432;51.212;3.254;2024-02-26T01:22:00;8.10;90.20
84276;DHT22;74432;51.212;3.254;2024-02-26T01:24:26;8.00;90.20
84276;DHT22;74432;51.212;3.254;2024-02-26T01:26:51;8.00;90.50
84276;DHT22;74432;51.212;3.254;2024-02-26T01:29:17;8.10;90.10
84276;DHT22;74432;51.212;3.254;2024-02-26T01:31:43;8.20;89.40
84276;DHT22;74432;51.212;3.254;2024-02-26T01:34:08;8.20;89.60
84276;DHT22;74432;51.212;3.254;2024-02-26T01:36:34;8.20;89.60
84276;DHT22;74432;51.212;3.254;2024-02-26T01:39:00;8.20;89.90
84276;DHT22;74432;51.212;3.254;2024-02-26T01:41:25;8.20;90.00
84276;DHT22;74432;51.212;3.254;2024-02-26T01:43:51;8.10;90.00
84276;DHT22;74432;51.212;3.254;2024-02-26T01:46:17;8.10;90.40
84276;DHT22;74432;51.212;3.254;2024-02-26T01:48:44;8.10;90.40
84276;DHT22;74432;51.212;3.254;2024-02-26T01:51:12;8.20;90.20
84276;DHT22;74432;51.212;3.254;2024-02-26T01:53:40;8.20;89.80
84276;DHT22;74432;51.212;3.254;2024-02-26T01:56:06;8.10;90.10
84276;DHT22;74432;51.212;3.254;2024-02-26T01:58:34;8.00;90.70
84276;DHT22;74432;51.212;3.254;2024-02-26T02:01:01;8.10;90.60
84276;DHT22;74432;51.212;3.254;2024-02-26T02:03:28;8.10;90.30
84276;DHT22;74432;51.212;3.254;2024-02-26T02:05:54;8.10;90.40
84276;DHT22;74432;51.212;3.254;2024-02-26T02:08:20;7.90;90.80
84276;DHT22;74432;51.212;3.254;2024-02-26T02:10:47;7.90;90.90
84276;DHT22;74432;51.212;3.254;2024-02-26T02:13:14;7.90;90.90
84276;DHT22;74432;51.212;3.254;2024-02-26T02:15:40;7.90;91.00
84276;DHT22;74432;51.212;3.254;2024-02-26T02:18:06;7.90;91.10
84276;DHT22;74432;51.212;3.254;2024-02-26T02:20:35;7.90;90.90
84276;DHT22;74432;51.212;3.254;2024-02-26T02:23:01;7.90;91.10
84276;DHT22;74432;51.212;3.254;2024-02-26T02:25:27;7.80;91.20
84276;DHT22;74432;51.212;3.254;2024-02-26T02:27:56;7.80;91.30
84276;DHT22;74432;51.212;3.254;2024-02-26T02:30:28;7.80;91.50
84276;DHT22;74432;51.212;3.254;2024-02-26T02:32:55;7.80;91.30
84276;DHT22;74432;51.212;3.254;2024-02-26T02:35:22;7.90;91.40
84276;DHT22;74432;51.212;3.254;2024-02-26T02:37:49;7.90;91.10
84276;DHT22;74432;51.212;3.254;2024-02-26T02:40:15;7.80;91.40
84276;DHT22;74432;51.212;3.254;2024-02-26T02:42:40;7.70;91.70
84276;DHT22;74432;51.212;3.254;2024-02-26T02:45:06;7.70;91.80
84276;DHT22;74432;51.212;3.254;2024-02-26T02:47:36;7.80;91.70
84276;DHT22;74432;51.212;3.254;2024-02-26T02:50:02;7.70;91.50
84276;DHT22;74432;51.212;3.254;2024-02-26T02:52:28;7.60;91.70
84276;DHT22;74432;51.212;3.254;2024-02-26T02:54:53;7.60;92.20
84276;DHT22;74432;51.212;3.254;2024-02-26T02:57:19;7.80;92.00
84276;DHT22;74432;51.212;3.254;2024-02-26T02:59:48;7.70;91.60
84276;DHT22;74432;51.212;3.254;2024-02-26T03:02:13;7.80;91.80
84276;DHT22;74432;51.212;3.254;2024-02-26T03:04:39;7.80;91.20
84276;DHT22;74432;51.212;3.254;2024-02-26T03:07:05;7.60;91.60
84276;DHT22;74432;51.212;3.254;2024-02-26T03:09:31;7.70;91.50
84276;DHT22;74432;51.212;3.254;2024-02-26T03:11:56;7.70;91.50
84276;DHT22;74432;51.212;3.254;2024-02-26T03:14:22;7.70;91.30
84276;DHT22;74432;51.212;3.254;2024-02-26T03:16:48;7.60;91.60
84276;DHT22;74432;51.212;3.254;2024-02-26T03:19:16;7.60;91.40
84276;DHT22;74432;51.212;3.254;2024-02-26T03:21:42;7.50;91.60
84276;DHT22;74432;51.212;3.254;2024-02-26T03:24:08;7.70;91.30
84276;DHT22;74432;51.212;3.254;2024-02-26T03:26:36;7.60;91.30
84276;DHT22;74432;51.212;3.254;2024-02-26T03:29:02;7.60;91.30
84276;DHT22;74432;51.212;3.254;2024-02-26T03:31:29;7.50;91.50
84276;DHT22;74432;51.212;3.254;2024-02-26T03:33:55;7.40;91.60
84276;DHT22;74432;51.212;3.254;2024-02-26T03:36:21;7.50;91.60
84276;DHT22;74432;51.212;3.254;2024-02-26T03:38:47;7.50;91.60
84276;DHT22;74432;51.212;3.254;2024-02-26T03:41:13;7.40;91.90
84276;DHT22;74432;51.212;3.254;2024-02-26T03:43:39;7.40;91.90
84276;DHT22;74432;51.212;3.254;2024-02-26T03:46:08;7.40;91.90
84276;DHT22;74432;51.212;3.254;2024-02-26T03:48:35;7.50;92.10
84276;DHT22;74432;51.212;3.254;2024-02-26T03:51:01;7.50;91.50
84276;DHT22;74432;51.212;3.254;2024-02-26T03:53:27;7.60;91.40
84276;DHT22;74432;51.212;3.254;2024-02-26T03:55:53;7.50;91.50
84276;DHT22;74432;51.212;3.254;2024-02-26T03:58:21;7.50;91.40
84276;DHT22;74432;51.212;3.254;2024-02-26T04:00:46;7.50;91.30
84276;DHT22;74432;51.212;3.254;2024-02-26T04:03:15;7.40;91.60
84276;DHT22;74432;51.212;3.254;2024-02-26T04:05:41;7.40;92.10
84276;DHT22;74432;51.212;3.254;2024-02-26T04:08:07;7.30;92.10
84276;DHT22;74432;51.212;3.254;2024-02-26T04:10:33;7.40;91.90
84276;DHT22;74432;51.212;3.254;2024-02-26T04:13:04;7.40;91.80
84276;DHT22;74432;51.212;3.254;2024-02-26T04:15:31;7.40;91.90
84276;DHT22;74432;51.212;3.254;2024-02-26T04:17:57;7.30;92.10
84276;DHT22;74432;51.212;3.254;2024-02-26T04:20:22;7.30;91.90
84276;DHT22;74432;51.212;3.254;2024-02-26T04:22:48;7.30;92.30
84276;DHT22;74432;51.212;3.254;2024-02-26T04:25:14;7.40;91.90
84276;DHT22;74432;51.212;3.254;2024-02-26T04:27:39;7.40;92.10
84276;DHT22;74432;51.212;3.254;2024-02-26T04:30:06;7.40;92.10
84276;DHT22;74432;51.212;3.254;2024-02-26T04:32:32;7.30;91.90
84276;DHT22;74432;51.212;3.254;2024-02-26T04:34:58;7.40;91.70
84276;DHT22;74432;51.212;3.254;2024-02-26T04:37:24;7.40;92.10
84276;DHT22;74432;51.212;3.254;2024-02-26T04:39:49;7.30;92.10
84276;DHT22;74432;51.212;3.254;2024-02-26T04:42:15;7.20;92.20
84276;DHT22;74432;51.212;3.254;2024-02-26T04:44:41;7.30;92.00
84276;DHT22;74432;51.212;3.254;2024-02-26T04:47:06;7.30;91.90
84276;DHT22;74432;51.212;3.254;2024-02-26T04:49:33;7.30;92.10
84276;DHT22;74432;51.212;3.254;2024-02-26T04:51:59;7.30;91.80
84276;DHT22;74432;51.212;3.254;2024-02-26T04:54:25;7.30;91.70
84276;DHT22;74432;51.212;3.254;2024-02-26T04:56:50;7.20;92.10
84276;DHT22;74432;51.212;3.254;2024-02-26T04:59:16;7.20;92.30
84276;DHT22;74432;51.212;3.254;2024-02-26T05:01:42;7.10;92.20
84276;DHT22;74432;51.212;3.254;2024-02-26T05:04:08;7.20;92.40
84276;DHT22;74432;51.212;3.254;2024-02-26T05:06:33;7.30;92.10
84276;DHT22;74432;51.212;3.254;2024-02-26T05:08:59;7.30;91.70
84276;DHT22;74432;51.212;3.254;2024-02-26T05:11:25;7.30;91.60
84276;DHT22;74432;51.212;3.254;2024-02-26T05:13:51;7.30;91.40
84276;DHT22;74432;51.212;3.254;2024-02-26T05:16:16;7.30;91.80
84276;DHT22;74432;51.212;3.254;2024-02-26T05:18:42;7.20;92.00
84276;DHT22;74432;51.212;3.254;2024-02-26T05:21:08;7.20;91.90
84276;DHT22;74432;51.212;3.254;2024-02-26T05:23:33;7.20;91.90
84276;DHT22;74432;51.212;3.254;2024-02-26T05:25:59;7.20;92.00
84276;DHT22;74432;51.212;3.254;2024-02-26T05:28:24;7.30;91.70
84276;DHT22;74432;51.212;3.254;2024-02-26T05:30:50;7.30;92.00
84276;DHT22;74432;51.212;3.254;2024-02-26T05:33:16;7.20;92.10
84276;DHT22;74432;51.212;3.254;2024-02-26T05:35:41;7.30;92.00
84276;DHT22;74432;51.212;3.254;2024-02-26T05:38:07;7.10;92.10
84276;DHT22;74432;51.212;3.254;2024-02-26T05:40:33;7.20;92.00
84276;DHT22;74432;51.212;3.254;2024-02-26T05:42:58;7.20;91.90
84276;DHT22;74432;51.212;3.254;2024-02-26T05:45:24;7.20;91.90
84276;DHT22;74432;51.212;3.254;2024-02-26T05:47:50;7.20;91.90
84276;DHT22;74432;51.212;3.254;2024-02-26T05:50:15;7.00;92.10
84276;DHT22;74432;51.212;3.254;2024-02-26T05:52:41;7.10;92.00
84276;DHT22;74432;51.212;3.254;2024-02-26T05:55:07;7.20;91.80
84276;DHT22;74432;51.212;3.254;2024-02-26T05:57:34;7.30;91.60
84276;DHT22;74432;51.212;3.254;2024-02-26T05:59:59;7.30;91.50
84276;DHT22;74432;51.212;3.254;2024-02-26T06:02:29;7.30;91.60
84276;DHT22;74432;51.212;3.254;2024-02-26T06:04:55;7.30;91.50
84276;DHT22;74432;51.212;3.254;2024-02-26T06:07:21;7.40;91.30
84276;DHT22;74432;51.212;3.254;2024-02-26T06:09:46;7.40;91.20
84276;DHT22;74432;51.212;3.254;2024-02-26T06:12:12;7.30;91.10
84276;DHT22;74432;51.212;3.254;2024-02-26T06:14:37;7.20;91.70
84276;DHT22;74432;51.212;3.254;2024-02-26T06:17:03;7.20;91.80
84276;DHT22;74432;51.212;3.254;2024-02-26T06:19:29;7.30;91.50
84276;DHT22;74432;51.212;3.254;2024-02-26T06:21:57;7.30;91.60
84276;DHT22;74432;51.212;3.254;2024-02-26T06:24:23;7.40;91.30
84276;DHT22;74432;51.212;3.254;2024-02-26T06:26:49;7.30;91.10
84276;DHT22;74432;51.212;3.254;2024-02-26T06:29:15;7.20;91.40
84276;DHT22;74432;51.212;3.254;2024-02-26T06:31:40;7.20;91.60
84276;DHT22;74432;51.212;3.254;2024-02-26T06:34:06;7.20;91.60
84276;DHT22;74432;51.212;3.254;2024-02-26T06:36:32;7.20;91.40
84276;DHT22;74432;51.212;3.254;2024-02-26T06:38:58;7.10;91.40
84276;DHT22;74432;51.212;3.254;2024-02-26T06:41:24;7.20;91.40
84276;DHT22;74432;51.212;3.254;2024-02-26T06:43:53;7.20;91.50
84276;DHT22;74432;51.212;3.254;2024-02-26T06:46:19;7.20;91.30
84276;DHT22;74432;51.212;3.254;2024-02-26T06:48:45;7.10;91.40
84276;DHT22;74432;51.212;3.254;2024-02-26T06:51:10;7.10;91.60
84276;DHT22;74432;51.212;3.254;2024-02-26T06:53:36;7.10;91.60
84276;DHT22;74432;51.212;3.254;2024-02-26T06:56:02;7.10;91.50
84276;DHT22;74432;51.212;3.254;2024-02-26T06:58:27;7.10;91.20
84276;DHT22;74432;51.212;3.254;2024-02-26T07:00:53;7.20;91.10
84276;DHT22;74432;51.212;3.254;2024-02-26T07:03:19;7.20;91.00
84276;DHT22;74432;51.212;3.254;2024-02-26T07:05:45;7.20;91.20
84276;DHT22;74432;51.212;3.254;2024-02-26T07:08:11;7.10;91.00
84276;DHT22;74432;51.212;3.254;2024-02-26T07:10:37;7.10;91.20
84276;DHT22;74432;51.212;3.254;2024-02-26T07:13:02;7.20;91.00
84276;DHT22;74432;51.212;3.254;2024-02-26T07:15:29;7.20;90.50
84276;DHT22;74432;51.212;3.254;2024-02-26T07:17:54;7.20;90.70
84276;DHT22;74432;51.212;3.254;2024-02-26T07:20:20;7.10;91.00
84276;DHT22;74432;51.212;3.254;2024-02-26T07:22:45;7.10;90.80
84276;DHT22;74432;51.212;3.254;2024-02-26T07:25:11;7.10;90.70
84276;DHT22;74432;51.212;3.254;2024-02-26T07:27:39;7.10;90.40
84276;DHT22;74432;51.212;3.254;2024-02-26T07:30:06;7.00;90.30
84276;DHT22;74432;51.212;3.254;2024-02-26T07:32:33;7.00;90.40
84276;DHT22;74432;51.212;3.254;2024-02-26T07:34:59;6.90;90.90
84276;DHT22;74432;51.212;3.254;2024-02-26T07:37:24;6.90;90.60
84276;DHT22;74432;51.212;3.254;2024-02-26T07:39:50;6.90;90.90
84276;DHT22;74432;51.212;3.254;2024-02-26T07:42:16;6.90;90.60
84276;DHT22;74432;51.212;3.254;2024-02-26T07:44:41;6.90;90.80
84276;DHT22;74432;51.212;3.254;2024-02-26T07:47:09;6.90;90.70
84276;DHT22;74432;51.212;3.254;2024-02-26T07:49:35;6.80;90.90
84276;DHT22;74432;51.212;3.254;2024-02-26T07:52:01;6.80;90.90
84276;DHT22;74432;51.212;3.254;2024-02-26T07:54:26;6.80;91.30
84276;DHT22;74432;51.212;3.254;2024-02-26T07:56:52;6.90;91.00
84276;DHT22;74432;51.212;3.254;2024-02-26T07:59:18;6.90;90.90
84276;DHT22;74432;51.212;3.254;2024-02-26T08:01:43;6.90;90.80
84276;DHT22;74432;51.212;3.254;2024-02-26T08:04:09;6.90;90.40
84276;DHT22;74432;51.212;3.254;2024-02-26T08:06:35;6.90;90.60
84276;DHT22;74432;51.212;3.254;2024-02-26T08:09:00;6.80;90.70
84276;DHT22;74432;51.212;3.254;2024-02-26T08:11:26;6.70;91.00
84276;DHT22;74432;51.212;3.254;2024-02-26T08:13:53;6.80;91.10
84276;DHT22;74432;51.212;3.254;2024-02-26T08:16:19;6.80;90.90
84276;DHT22;74432;51.212;3.254;2024-02-26T08:18:44;6.70;91.00
84276;DHT22;74432;51.212;3.254;2024-02-26T08:21:10;6.70;90.90
84276;DHT22;74432;51.212;3.254;2024-02-26T08:23:35;6.60;90.90
84276;DHT22;74432;51.212;3.254;2024-02-26T08:26:01;6.60;91.30
84276;DHT22;74432;51.212;3.254;2024-02-26T08:28:29;6.60;91.20
84276;DHT22;74432;51.212;3.254;2024-02-26T08:30:54;6.60;91.50
84276;DHT22;74432;51.212;3.254;2024-02-26T08:33:20;6.60;91.60
84276;DHT22;74432;51.212;3.254;2024-02-26T08:35:46;6.60;91.50
84276;DHT22;74432;51.212;3.254;2024-02-26T08:38:11;6.60;91.10
84276;DHT22;74432;51.212;3.254;2024-02-26T08:40:37;6.60;91.40
84276;DHT22;74432;51.212;3.254;2024-02-26T08:43:03;6.60;91.50
84276;DHT22;74432;51.212;3.254;2024-02-26T08:45:28;6.60;91.50
84276;DHT22;74432;51.212;3.254;2024-02-26T08:47:54;6.70;91.60
84276;DHT22;74432;51.212;3.254;2024-02-26T08:50:19;6.70;91.20
84276;DHT22;74432;51.212;3.254;2024-02-26T08:52:45;6.60;91.20
84276;DHT22;74432;51.212;3.254;2024-02-26T08:55:15;6.60;91.20
84276;DHT22;74432;51.212;3.254;2024-02-26T08:57:41;6.60;91.40
84276;DHT22;74432;51.212;3.254;2024-02-26T09:00:07;6.60;91.70
84276;DHT22;74432;51.212;3.254;2024-02-26T09:02:33;6.60;91.50
84276;DHT22;74432;51.212;3.254;2024-02-26T09:04:58;6.60;91.40
84276;DHT22;74432;51.212;3.254;2024-02-26T09:07:24;6.70;91.60
84276;DHT22;74432;51.212;3.254;2024-02-26T09:09:50;6.60;91.20
84276;DHT22;74432;51.212;3.254;2024-02-26T09:12:16;6.70;91.50
84276;DHT22;74432;51.212;3.254;2024-02-26T09:14:42;6.70;91.60
84276;DHT22;74432;51.212;3.254;2024-02-26T09:17:07;6.60;91.50
84276;DHT22;74432;51.212;3.254;2024-02-26T09:19:33;6.60;91.50
84276;DHT22;74432;51.212;3.254;2024-02-26T09:21:59;6.60;91.70
84276;DHT22;74432;51.212;3.254;2024-02-26T09:24:28;6.60;91.60
84276;DHT22;74432;51.212;3.254;2024-02-26T09:26:53;6.60;91.90
84276;DHT22;74432;51.212;3.254;2024-02-26T09:29:19;6.70;91.70
84276;DHT22;74432;51.212;3.254;2024-02-26T09:31:45;6.60;91.50
84276;DHT22;74432;51.212;3.254;2024-02-26T09:34:13;6.50;91.80
84276;DHT22;74432;51.212;3.254;2024-02-26T09:36:38;6.60;92.20
84276;DHT22;74432;51.212;3.254;2024-02-26T09:39:04;6.60;91.80
84276;DHT22;74432;51.212;3.254;2024-02-26T09:41:30;6.70;91.90
84276;DHT22;74432;51.212;3.254;2024-02-26T09:43:57;6.70;91.60
84276;DHT22;74432;51.212;3.254;2024-02-26T09:46:27;6.70;91.80
84276;DHT22;74432;51.212;3.254;2024-02-26T09:48:53;6.80;91.70
84276;DHT22;74432;51.212;3.254;2024-02-26T09:51:19;6.70;91.60
84276;DHT22;74432;51.212;3.254;2024-02-26T09:53:52;6.70;91.90
84276;DHT22;74432;51.212;3.254;2024-02-26T09:56:18;6.70;91.90
84276;DHT22;74432;51.212;3.254;2024-02-26T09:58:44;6.70;92.40
84276;DHT22;74432;51.212;3.254;2024-02-26T10:01:16;6.70;92.20
84276;DHT22;74432;51.212;3.254;2024-02-26T10:03:42;6.80;92.00
84276;DHT22;74432;51.212;3.254;2024-02-26T10:06:10;6.80;91.90
84276;DHT22;74432;51.212;3.254;2024-02-26T10:08:36;6.80;91.90
84276;DHT22;74432;51.212;3.254;2024-02-26T10:11:03;6.80;91.90
84276;DHT22;74432;51.212;3.254;2024-02-26T10:13:30;6.80;92.30
84276;DHT22;74432;51.212;3.254;2024-02-26T10:15:56;6.70;91.90
84276;DHT22;74432;51.212;3.254;2024-02-26T10:18:23;6.70;91.70
84276;DHT22;74432;51.212;3.254;2024-02-26T10:21:02;6.60;91.70
84276;DHT22;74432;51.212;3.254;2024-02-26T10:23:28;6.60;92.00
84276;DHT22;74432;51.212;3.254;2024-02-26T10:25:56;6.60;92.10
84276;DHT22;74432;51.212;3.254;2024-02-26T10:28:23;6.60;92.30
84276;DHT22;74432;51.212;3.254;2024-02-26T10:30:48;6.60;92.00
84276;DHT22;74432;51.212;3.254;2024-02-26T10:33:15;6.60;92.30
84276;DHT22;74432;51.212;3.254;2024-02-26T10:35:46;6.60;92.20
84276;DHT22;74432;51.212;3.254;2024-02-26T10:38:12;6.80;92.30
84276;DHT22;74432;51.212;3.254;2024-02-26T10:40:38;6.80;91.70
84276;DHT22;74432;51.212;3.254;2024-02-26T10:43:04;6.80;92.00
84276;DHT22;74432;51.212;3.254;2024-02-26T10:45:29;6.80;91.90
84276;DHT22;74432;51.212;3.254;2024-02-26T10:47:57;6.80;91.50
84276;DHT22;74432;51.212;3.254;2024-02-26T10:50:22;6.80;91.90
84276;DHT22;74432;51.212;3.254;2024-02-26T10:52:48;6.70;91.90
84276;DHT22;74432;51.212;3.254;2024-02-26T10:55:17;6.80;92.00
84276;DHT22;74432;51.212;3.254;2024-02-26T10:57:46;6.80;91.90
84276;DHT22;74432;51.212;3.254;2024-02-26T11:00:16;6.90;91.60
84276;DHT22;74432;51.212;3.254;2024-02-26T11:02:42;6.90;91.70
84276;DHT22;74432;51.212;3.254;2024-02-26T11:05:11;6.90;91.60
84276;DHT22;74432;51.212;3.254;2024-02-26T11:07:37;6.90;91.50
84276;DHT22;74432;51.212;3.254;2024-02-26T11:10:04;6.80;91.60
84276;DHT22;74432;51.212;3.254;2024-02-26T11:12:32;6.80;91.80
84276;DHT22;74432;51.212;3.254;2024-02-26T11:15:01;6.90;91.60
84276;DHT22;74432;51.212;3.254;2024-02-26T11:17:28;6.90;91.90
84276;DHT22;74432;51.212;3.254;2024-02-26T11:19:58;6.90;92.00
84276;DHT22;74432;51.212;3.254;2024-02-26T11:22:26;7.00;91.70
84276;DHT22;74432;51.212;3.254;2024-02-26T11:24:53;7.10;91.50
84276;DHT22;74432;51.212;3.254;2024-02-26T11:27:30;7.10;91.40
84276;DHT22;74432;51.212;3.254;2024-02-26T11:29:59;7.10;91.40
84276;DHT22;74432;51.212;3.254;2024-02-26T11:32:27;7.10;91.60
84276;DHT22;74432;51.212;3.254;2024-02-26T11:34:55;7.10;91.50
84276;DHT22;74432;51.212;3.254;2024-02-26T11:37:22;7.10;91.60
84276;DHT22;74432;51.212;3.254;2024-02-26T11:39:48;7.10;91.40
84276;DHT22;74432;51.212;3.254;2024-02-26T11:42:16;7.10;91.10
84276;DHT22;74432;51.212;3.254;2024-02-26T11:44:42;7.10;91.10
84276;DHT22;74432;51.212;3.254;2024-02-26T11:47:18;7.10;91.30
84276;DHT22;74432;51.212;3.254;2024-02-26T11:49:44;7.10;91.20
84276;DHT22;74432;51.212;3.254;2024-02-26T11:52:10;7.10;91.40
84276;DHT22;74432;51.212;3.254;2024-02-26T11:54:50;7.10;91.40
84276;DHT22;74432;51.212;3.254;2024-02-26T11:59:51;7.20;91.40
84276;DHT22;74432;51.212;3.254;2024-02-26T12:02:45;7.20;91.50
84276;DHT22;74432;51.212;3.254;2024-02-26T12:05:19;7.30;91.30
84276;DHT22;74432;51.212;3.254;2024-02-26T12:07:55;7.20;91.10
84276;DHT22;74432;51.212;3.254;2024-02-26T12:10:30;7.20;91.30
84276;DHT22;74432;51.212;3.254;2024-02-26T12:13:02;7.20;91.00
84276;DHT22;74432;51.212;3.254;2024-02-26T12:15:38;7.20;91.30
84276;DHT22;74432;51.212;3.254;2024-02-26T12:18:06;7.20;91.00
84276;DHT22;74432;51.212;3.254;2024-02-26T12:20:38;7.30;91.10
84276;DHT22;74432;51.212;3.254;2024-02-26T12:23:04;7.30;91.00
84276;DHT22;74432;51.212;3.254;2024-02-26T12:25:31;7.40;91.20
84276;DHT22;74432;51.212;3.254;2024-02-26T12:27:57;7.40;91.20
84276;DHT22;74432;51.212;3.254;2024-02-26T12:30:23;7.40;90.70
84276;DHT22;74432;51.212;3.254;2024-02-26T12:32:51;7.50;90.70
84276;DHT22;74432;51.212;3.254;2024-02-26T12:35:17;7.50;90.50
84276;DHT22;74432;51.212;3.254;2024-02-26T12:37:43;7.50;90.00
84276;DHT22;74432;51.212;3.254;2024-02-26T12:40:10;7.50;90.40
84276;DHT22;74432;51.212;3.254;2024-02-26T12:42:36;7.40;90.30
84276;DHT22;74432;51.212;3.254;2024-02-26T12:45:06;7.40;90.60
84276;DHT22;74432;51.212;3.254;2024-02-26T12:47:39;7.40;90.60
84276;DHT22;74432;51.212;3.254;2024-02-26T12:50:05;7.50;90.70
84276;DHT22;74432;51.212;3.254;2024-02-26T12:52:35;7.50;90.50
84276;DHT22;74432;51.212;3.254;2024-02-26T12:55:02;7.50;90.80
84276;DHT22;74432;51.212;3.254;2024-02-26T12:57:30;7.60;90.50
84276;DHT22;74432;51.212;3.254;2024-02-26T12:59:57;7.60;90.60
84276;DHT22;74432;51.212;3.254;2024-02-26T13:02:24;7.60;90.70
84276;DHT22;74432;51.212;3.254;2024-02-26T13:04:50;7.60;90.70
84276;DHT22;74432;51.212;3.254;2024-02-26T13:07:15;7.70;90.60
84276;DHT22;74432;51.212;3.254;2024-02-26T13:09:41;7.70;90.60
84276;DHT22;74432;51.212;3.254;2024-02-26T13:12:07;7.90;90.20
84276;DHT22;74432;51.212;3.254;2024-02-26T13:14:33;8.00;89.40
84276;DHT22;74432;51.212;3.254;2024-02-26T13:17:00;7.90;89.40
84276;DHT22;74432;51.212;3.254;2024-02-26T13:19:26;8.00;89.30
84276;DHT22;74432;51.212;3.254;2024-02-26T13:21:55;8.00;89.00
84276;DHT22;74432;51.212;3.254;2024-02-26T13:24:21;7.90;89.10
84276;DHT22;74432;51.212;3.254;2024-02-26T13:26:54;7.80;89.60
84276;DHT22;74432;51.212;3.254;2024-02-26T13:29:20;7.90;89.40
84276;DHT22;74432;51.212;3.254;2024-02-26T13:31:46;7.90;89.90
84276;DHT22;74432;51.212;3.254;2024-02-26T13:34:28;7.80;89.30
84276;DHT22;74432;51.212;3.254;2024-02-26T13:36:54;7.80;89.70
84276;DHT22;74432;51.212;3.254;2024-02-26T13:39:27;7.70;89.30
84276;DHT22;74432;51.212;3.254;2024-02-26T13:41:53;7.80;89.30
84276;DHT22;74432;51.212;3.254;2024-02-26T13:44:20;7.80;89.50
84276;DHT22;74432;51.212;3.254;2024-02-26T13:46:47;7.80;89.10
84276;DHT22;74432;51.212;3.254;2024-02-26T13:49:13;7.80;89.60
84276;DHT22;74432;51.212;3.254;2024-02-26T13:51:39;7.80;89.20
84276;DHT22;74432;51.212;3.254;2024-02-26T13:54:07;7.90;89.20
84276;DHT22;74432;51.212;3.254;2024-02-26T13:56:34;7.90;89.10
84276;DHT22;74432;51.212;3.254;2024-02-26T13:59:00;7.80;88.90
84276;DHT22;74432;51.212;3.254;2024-02-26T14:01:26;7.70;89.10
84276;DHT22;74432;51.212;3.254;2024-02-26T14:03:52;7.80;90.00
84276;DHT22;74432;51.212;3.254;2024-02-26T14:06:20;7.70;89.60
84276;DHT22;74432;51.212;3.254;2024-02-26T14:08:46;7.80;89.40
84276;DHT22;74432;51.212;3.254;2024-02-26T14:11:11;7.80;89.40
84276;DHT22;74432;51.212;3.254;2024-02-26T14:13:37;7.70;88.70
84276;DHT22;74432;51.212;3.254;2024-02-26T14:16:03;7.60;90.10
84276;DHT22;74432;51.212;3.254;2024-02-26T14:18:29;7.60;89.60
84276;DHT22;74432;51.212;3.254;2024-02-26T14:20:54;7.70;89.90
84276;DHT22;74432;51.212;3.254;2024-02-26T14:23:20;7.70;89.60
84276;DHT22;74432;51.212;3.254;2024-02-26T14:25:46;7.60;90.10
84276;DHT22;74432;51.212;3.254;2024-02-26T14:28:11;7.70;90.30
84276;DHT22;74432;51.212;3.254;2024-02-26T14:30:37;7.70;90.20
84276;DHT22;74432;51.212;3.254;2024-02-26T14:33:02;7.70;90.30
84276;DHT22;74432;51.212;3.254;2024-02-26T14:35:28;7.70;90.30
84276;DHT22;74432;51.212;3.254;2024-02-26T14:37:54;7.70;90.10
84276;DHT22;74432;51.212;3.254;2024-02-26T14:40:20;7.70;90.30
84276;DHT22;74432;51.212;3.254;2024-02-26T14:42:46;7.60;90.20
84276;DHT22;74432;51.212;3.254;2024-02-26T14:45:12;7.60;90.20
84276;DHT22;74432;51.212;3.254;2024-02-26T14:47:38;7.80;90.60
84276;DHT22;74432;51.212;3.254;2024-02-26T14:50:04;7.80;90.50
84276;DHT22;74432;51.212;3.254;2024-02-26T14:52:30;7.90;89.70
84276;DHT22;74432;51.212;3.254;2024-02-26T14:54:56;7.90;89.00
84276;DHT22;74432;51.212;3.254;2024-02-26T14:57:25;8.00;89.30
84276;DHT22;74432;51.212;3.254;2024-02-26T14:59:51;8.00;89.60
84276;DHT22;74432;51.212;3.254;2024-02-26T15:02:17;8.10;88.80
84276;DHT22;74432;51.212;3.254;2024-02-26T15:04:43;8.00;88.00
84276;DHT22;74432;51.212;3.254;2024-02-26T15:07:09;8.00;89.00
84276;DHT22;74432;51.212;3.254;2024-02-26T15:09:37;8.10;89.10
84276;DHT22;74432;51.212;3.254;2024-02-26T15:12:04;8.10;88.20
84276;DHT22;74432;51.212;3.254;2024-02-26T15:14:33;8.20;89.00
84276;DHT22;74432;51.212;3.254;2024-02-26T15:16:59;8.20;88.80
84276;DHT22;74432;51.212;3.254;2024-02-26T15:19:24;8.20;89.60
84276;DHT22;74432;51.212;3.254;2024-02-26T15:21:50;8.20;89.10
84276;DHT22;74432;51.212;3.254;2024-02-26T15:24:16;8.30;88.50
84276;DHT22;74432;51.212;3.254;2024-02-26T15:26:43;8.20;88.10
84276;DHT22;74432;51.212;3.254;2024-02-26T15:29:08;8.20;88.20
84276;DHT22;74432;51.212;3.254;2024-02-26T15:31:35;8.20;88.10
84276;DHT22;74432;51.212;3.254;2024-02-26T15:34:01;8.30;88.20
84276;DHT22;74432;51.212;3.254;2024-02-26T15:36:26;8.20;88.10
84276;DHT22;74432;51.212;3.254;2024-02-26T15:38:52;8.20;88.60
84276;DHT22;74432;51.212;3.254;2024-02-26T15:41:17;8.20;88.90
84276;DHT22;74432;51.212;3.254;2024-02-26T15:43:43;8.20;88.40